Terminal Aerodrome Forecast
Issued by NWS Grand Forks, ND

Home | Current Version | Previous Version | Graphics & Text | Print | Product List | Glossary On
Versions: 1 2 3 4 5 6 7 8 9 10 11 12 13 14 15 16 17
376
FTUS43 KFGF 202320
TAFGFK
TAF
KGFK 202320Z 2100/2124 17017G28KT P6SM SCT200 BKN250
     FM210100 17017G26KT P6SM BKN250 WS020/18045KT
     FM211300 20013KT P6SM SCT150
     FM211500 24011KT P6SM SCT200
     FM211800 27012KT P6SM SCT200
     FM212100 27014G20KT P6SM BKN090=

USA.gov is the U.S. government's official web portal to all federal, state and local government web resources and services.